Time;durP1;ratioP1;P1;durP2;ratioP2;P2;SDS_P1;SDS_P2;PMS_P1;PMS_P2;Temp;Humidity;BMP_temperature;BMP_pressure;BME280_temperature;BME280_humidity;BME280_pressure;Samples;Min_cycle;Max_cycle;Signal;HPM_P1;HPM_P2
2021/09/27 00:01:14;;;;;;;13.90;12.45;;;17.70;99.90;;;18.73;100.00;100218.25;5035739;28;20202;-64
2021/09/27 00:03:44;;;;;;;14.00;12.00;;;17.80;99.90;;;18.87;100.00;100218.56;5035919;28;20602;-64
2021/09/27 00:06:14;;;;;;;12.95;11.65;;;17.90;99.90;;;19.18;100.00;100203.78;5035861;28;20229;-64
2021/09/27 00:08:42;;;;;;;12.75;10.93;;;18.00;99.90;;;19.17;100.00;100216.63;5035298;28;20615;-64
2021/09/27 00:11:16;;;;;;;12.15;10.27;;;18.10;99.90;;;19.48;100.00;100220.19;5035430;28;20245;-63
2021/09/27 00:13:51;;;;;;;10.98;8.07;;;18.30;99.90;;;19.55;100.00;100230.81;5035769;28;20191;-64
2021/09/27 00:16:21;;;;;;;5.53;5.00;;;18.40;99.90;;;19.64;100.00;100227.25;5035630;28;20186;-63
2021/09/27 00:18:50;;;;;;;5.15;4.47;;;18.50;99.90;;;19.62;100.00;100234.09;5035476;28;20237;-64
2021/09/27 00:21:23;;;;;;;6.07;4.07;;;18.60;99.90;;;19.64;100.00;100257.31;5035358;28;20230;-65
2021/09/27 00:23:52;;;;;;;4.43;4.00;;;18.70;99.90;;;19.77;100.00;100272.34;5035393;28;20312;-64
2021/09/27 00:26:21;;;;;;;5.25;4.75;;;18.70;99.90;;;19.72;100.00;100280.53;5035249;28;20753;-64
2021/09/27 00:28:50;;;;;;;7.18;5.93;;;18.70;99.90;;;19.63;100.00;100299.41;5035136;28;20206;-65
2021/09/27 00:31:21;;;;;;;6.45;5.85;;;18.70;99.90;;;19.68;100.00;100304.06;5035309;28;20296;-63
2021/09/27 00:33:50;;;;;;;10.15;7.80;;;18.70;99.90;;;19.60;100.00;100299.16;5035090;28;20194;-64
2021/09/27 00:36:19;;;;;;;11.20;9.65;;;18.50;99.90;;;19.43;100.00;100283.84;5035332;28;20669;-64
2021/09/27 00:38:47;;;;;;;17.02;11.65;;;18.50;99.90;;;19.20;100.00;100262.53;5034884;28;20658;-63
2021/09/27 00:41:19;;;;;;;20.38;13.30;;;18.30;99.90;;;18.88;100.00;100258.41;5035175;28;20236;-63
2021/09/27 00:43:50;;;;;;;14.60;11.52;;;18.10;99.90;;;18.57;100.00;100264.91;5035233;28;20208;-64
2021/09/27 00:46:24;;;;;;;16.38;12.35;;;17.80;99.90;;;18.45;100.00;100280.69;5034988;28;20187;-64
2021/09/27 00:48:54;;;;;;;14.90;10.63;;;17.70;99.90;;;18.36;100.00;100283.09;5034956;28;20669;-64
2021/09/27 00:51:28;;;;;;;16.27;10.80;;;17.60;99.90;;;18.25;100.00;100286.84;5034973;28;20212;-65
2021/09/27 00:54:00;;;;;;;13.85;9.63;;;17.40;99.90;;;18.07;100.00;100287.31;5034736;28;20182;-64
2021/09/27 00:56:35;;;;;;;15.95;9.93;;;17.30;99.90;;;18.04;100.00;100288.69;5034836;28;20277;-64
2021/09/27 05:47:12;;;;;;;20.52;13.45;;;16.40;99.90;;;-141.85;100.00;63675.41;5444299;23;20266;-85
2021/09/27 05:50:00;;;;;;;18.58;14.10;;;16.40;99.90;;;-141.85;100.00;63675.41;4926599;29;20221;-84
2021/09/27 05:52:38;;;;;;;21.77;14.95;;;16.40;99.90;;;-141.85;100.00;63675.41;4926337;29;20631;-84
2021/09/27 05:55:20;;;;;;;20.92;15.10;;;16.40;99.90;;;-141.85;100.00;63675.41;4926529;29;20213;-84
2021/09/27 05:57:57;;;;;;;19.27;14.85;;;16.50;99.90;;;-141.85;100.00;63675.41;4930971;29;20190;-83
2021/09/27 06:00:36;;;;;;;20.13;14.18;;;16.50;99.90;;;-141.85;100.00;63675.41;4927632;29;20234;-82
2021/09/27 06:03:43;;;;;;;21.42;15.38;;;16.60;99.90;;;-141.85;100.00;63675.41;4924761;29;20210;-83
2021/09/27 06:06:34;;;;;;;21.00;14.75;;;16.60;99.90;;;-141.85;100.00;63675.41;4939889;29;20186;-85
2021/09/27 06:09:39;;;;;;;22.20;14.43;;;16.70;99.90;;;-141.85;100.00;63675.41;4941420;29;20190;-84
2021/09/27 06:12:22;;;;;;;20.20;14.25;;;16.70;99.90;;;-141.85;100.00;63675.41;4934097;29;20284;-86
2021/09/27 06:14:58;;;;;;;24.20;15.05;;;16.70;99.90;;;-141.85;100.00;63675.41;4907553;29;20726;-87
2021/09/27 06:18:01;;;;;;;20.45;14.32;;;16.80;99.90;;;-141.85;100.00;63675.41;4942641;29;20596;-86
2021/09/27 06:20:49;;;;;;;20.23;13.80;;;16.80;99.90;;;-141.85;100.00;63675.41;4926559;29;20232;-85
2021/09/27 06:23:55;;;;;;;18.42;13.95;;;16.80;99.90;;;-141.85;100.00;63675.41;4921712;29;20221;-86
2021/09/27 06:26:33;;;;;;;21.17;13.95;;;16.80;99.90;;;-141.85;100.00;63675.41;4925783;29;20221;-84
2021/09/27 06:29:05;;;;;;;18.67;13.07;;;16.80;99.90;;;-141.85;100.00;63675.41;4928431;29;20196;-85
2021/09/27 06:31:42;;;;;;;18.08;13.68;;;16.80;99.90;;;-141.85;100.00;63675.41;4927875;29;20234;-85
2021/09/27 06:34:19;;;;;;;19.48;13.80;;;16.80;99.90;;;-141.85;100.00;63675.41;4926040;29;20230;-86
2021/09/27 06:36:51;;;;;;;21.77;16.63;;;16.90;99.90;;;-141.85;100.00;63675.41;4926592;29;20186;-86
2021/09/27 06:39:27;;;;;;;20.10;15.48;;;16.90;99.90;;;-141.85;100.00;63675.41;4927663;29;20285;-84
2021/09/27 06:41:59;;;;;;;22.02;16.45;;;16.90;99.90;;;-141.85;100.00;63675.41;4926819;29;20217;-85
2021/09/27 06:44:29;;;;;;;19.05;15.40;;;17.00;99.90;;;-141.85;100.00;63675.41;4927404;29;20206;-85
2021/09/27 06:46:58;;;;;;;18.30;15.20;;;17.00;99.90;;;-141.85;100.00;63675.41;4925224;29;20249;-86
2021/09/27 06:49:27;;;;;;;17.13;14.18;;;17.00;99.90;;;-141.85;100.00;63675.41;4926122;29;20218;-86
2021/09/27 06:51:56;;;;;;;16.77;13.93;;;17.10;99.90;;;-141.85;100.00;63675.41;4924019;29;20611;-84
2021/09/27 06:54:24;;;;;;;18.75;14.05;;;17.10;99.90;;;-141.85;100.00;63675.41;4927950;29;20207;-84
2021/09/27 06:56:53;;;;;;;14.75;12.55;;;17.10;99.90;;;-141.85;100.00;63675.41;4947720;29;20210;-85
2021/09/27 06:59:21;;;;;;;14.88;11.27;;;17.10;99.90;;;-141.85;100.00;63675.41;4913757;29;20226;-85
2021/09/27 07:01:51;;;;;;;15.00;11.48;;;17.20;99.90;;;-141.85;100.00;63675.41;4929118;29;20210;-84
2021/09/27 07:04:19;;;;;;;13.85;10.75;;;17.20;99.90;;;-141.85;100.00;63675.41;4930036;29;20230;-84
2021/09/27 07:06:48;;;;;;;15.25;11.10;;;17.30;99.90;;;-141.85;100.00;63675.41;4929378;29;20244;-83
2021/09/27 07:09:21;;;;;;;13.75;10.32;;;17.30;99.90;;;-141.85;100.00;63675.41;4928255;29;20187;-84
2021/09/27 07:11:49;;;;;;;12.57;9.57;;;17.30;99.90;;;-141.85;100.00;63675.41;4929482;29;20210;-85
2021/09/27 07:14:17;;;;;;;11.40;8.90;;;17.40;99.90;;;-141.85;100.00;63675.41;4910035;29;20707;-85
2021/09/27 07:16:45;;;;;;;10.35;8.38;;;17.50;99.90;;;-141.85;100.00;63675.41;4927167;29;20238;-85
2021/09/27 07:19:18;;;;;;;11.23;8.52;;;17.50;99.90;;;-141.85;100.00;63675.41;4927774;29;20699;-86
2021/09/27 07:21:46;;;;;;;10.60;8.48;;;17.60;99.90;;;-141.85;100.00;63675.41;4926781;29;20206;-84
2021/09/27 07:24:15;;;;;;;10.02;8.15;;;17.60;99.90;;;-141.85;100.00;63675.41;4938765;29;20226;-86
2021/09/27 07:26:47;;;;;;;10.15;7.50;;;17.70;99.90;;;-141.85;100.00;63675.41;4939028;29;20196;-86
2021/09/27 07:29:16;;;;;;;9.35;8.05;;;17.70;99.90;;;-141.85;100.00;63675.41;4924606;29;20217;-84
2021/09/27 07:31:48;;;;;;;8.95;7.43;;;17.80;99.90;;;-141.85;100.00;63675.41;4937748;29;20206;-85
2021/09/27 07:34:20;;;;;;;9.10;7.93;;;17.80;99.90;;;-141.85;100.00;63675.41;4938951;29;20190;-85
2021/09/27 07:36:51;;;;;;;12.00;8.43;;;17.90;99.90;;;-141.85;100.00;63675.41;4938542;29;20191;-85
2021/09/27 07:39:19;;;;;;;10.18;8.02;;;17.90;99.90;;;-141.85;100.00;63675.41;4940501;29;20231;-86
2021/09/27 07:41:49;;;;;;;8.27;7.20;;;17.90;99.90;;;-141.85;100.00;63675.41;4939070;29;20238;-85
2021/09/27 07:44:18;;;;;;;8.75;7.57;;;17.90;99.90;;;-141.85;100.00;63675.41;4938353;29;20198;-85
2021/09/27 07:46:46;;;;;;;7.93;6.78;;;18.00;99.90;;;-141.85;100.00;63675.41;4934279;29;20230;-86
2021/09/27 07:49:15;;;;;;;9.85;7.07;;;18.00;99.90;;;-141.85;100.00;63675.41;4934609;29;20198;-85
2021/09/27 07:51:46;;;;;;;9.68;7.00;;;18.00;99.90;;;-141.85;100.00;63675.41;4934915;29;20222;-84
2021/09/27 07:54:15;;;;;;;8.18;7.00;;;18.10;99.90;;;-141.85;100.00;63675.41;4934193;29;20190;-87
2021/09/27 07:56:45;;;;;;;9.40;7.15;;;18.20;99.90;;;-141.85;100.00;63675.41;4953189;29;20182;-85
2021/09/27 07:59:21;;;;;;;6.97;6.25;;;18.30;99.90;;;-141.85;100.00;63675.41;4953856;29;20202;-87
2021/09/27 08:01:50;;;;;;;7.70;6.18;;;18.60;99.90;;;-141.85;100.00;63675.41;4956759;29;20641;-86
2021/09/27 08:04:19;;;;;;;10.52;7.43;;;18.70;99.90;;;-141.85;100.00;63675.41;4958094;28;20217;-87
2021/09/27 08:06:48;;;;;;;7.13;6.13;;;18.80;99.90;;;-141.85;100.00;63675.41;4961278;28;20209;-88
2021/09/27 08:09:16;;;;;;;6.90;5.82;;;18.90;99.90;;;-141.85;100.00;63675.41;4959473;28;20214;-86
2021/09/27 08:11:45;;;;;;;7.85;5.75;;;19.00;99.90;;;-141.85;100.00;63675.41;4962794;28;20236;-85
2021/09/27 08:14:46;;;;;;;7.20;6.07;;;19.10;99.90;;;-141.85;100.00;63675.41;4962552;28;20213;-88
2021/09/27 08:17:21;;;;;;;9.15;6.18;;;19.20;99.90;;;-141.85;100.00;63675.41;4953932;28;20274;-86
2021/09/27 08:19:56;;;;;;;7.15;6.05;;;19.30;99.90;;;-141.85;100.00;63675.41;4962895;28;20192;-87
2021/09/27 08:22:25;;;;;;;7.75;6.05;;;19.40;99.90;;;-141.85;100.00;63675.41;4962816;28;20200;-88
2021/09/27 08:24:54;;;;;;;6.75;6.05;;;19.50;99.90;;;-141.85;100.00;63675.41;4962627;28;20201;-88
2021/09/27 08:27:27;;;;;;;9.02;6.43;;;19.50;99.90;;;-141.85;100.00;63675.41;4962501;28;20264;-87
2021/09/27 08:30:00;;;;;;;7.20;6.03;;;19.40;99.90;;;-141.85;100.00;63675.41;4962439;28;20219;-86
2021/09/27 08:32:28;;;;;;;8.00;6.25;;;19.40;99.90;;;-141.85;100.00;63675.41;4962051;28;20213;-84
2021/09/27 08:35:01;;;;;;;6.93;6.20;;;19.50;99.90;;;-141.85;100.00;63675.41;4953743;29;20611;-84
2021/09/27 08:37:32;;;;;;;7.90;6.40;;;19.40;99.90;;;-141.85;100.00;63675.41;4949462;29;20209;-86
2021/09/27 08:40:00;;;;;;;7.88;6.53;;;19.40;99.90;;;-141.85;100.00;63675.41;4948564;29;20205;-84
2021/09/27 08:42:40;;;;;;;6.78;6.07;;;19.50;99.90;;;-141.85;100.00;63675.41;4950801;29;20209;-86
2021/09/27 08:45:21;;;;;;;8.57;6.90;;;19.40;99.90;;;-141.85;100.00;63675.41;4945057;29;20213;-86
2021/09/27 08:48:02;;;;;;;7.30;6.60;;;19.50;99.90;;;-141.85;100.00;63675.41;4945778;29;20226;-85
2021/09/27 08:50:36;;;;;;;7.32;6.50;;;19.40;99.90;;;-141.85;100.00;63675.41;4946792;29;20209;-84
2021/09/27 08:53:25;;;;;;;7.95;7.15;;;19.40;99.90;;;-141.85;100.00;63675.41;4960041;28;20255;-86
2021/09/27 08:56:03;;;;;;;8.65;6.75;;;19.40;99.90;;;-141.85;100.00;63675.41;4946782;29;20261;-84
2021/09/27 08:58:48;;;;;;;7.85;7.05;;;19.40;99.90;;;-141.85;100.00;63675.41;4940767;29;20232;-83
2021/09/27 09:01:25;;;;;;;8.40;7.32;;;19.40;99.90;;;-141.85;100.00;63675.41;4940837;29;20210;-85
2021/09/27 09:04:08;;;;;;;9.00;7.43;;;19.50;99.90;;;-141.85;100.00;63675.41;4942185;29;20191;-85
2021/09/27 09:06:46;;;;;;;7.97;6.88;;;19.60;99.90;;;-141.85;100.00;63675.41;4939945;29;20183;-87
2021/09/27 09:09:20;;;;;;;9.10;8.02;;;19.50;99.90;;;-141.85;100.00;63675.41;4938412;29;20185;-85
2021/09/27 09:11:55;;;;;;;7.72;6.90;;;19.50;99.90;;;-141.85;100.00;63675.41;4933874;29;20222;-86
2021/09/27 09:14:39;;;;;;;8.40;7.50;;;19.40;99.90;;;-141.85;100.00;63675.41;4933253;29;20223;-84
2021/09/27 09:17:21;;;;;;;7.95;7.13;;;19.40;99.90;;;-141.85;100.00;63675.41;4928119;29;20230;-85
2021/09/27 09:19:51;;;;;;;8.13;7.32;;;19.50;99.90;;;-141.85;100.00;63675.41;4928268;29;20238;-86
2021/09/27 09:22:27;;;;;;;11.35;8.30;;;19.50;99.90;;;-141.85;100.00;63675.41;4929766;29;20182;-84
2021/09/27 09:24:56;;;;;;;9.55;7.25;;;19.70;99.90;;;-141.85;100.00;63675.41;4926224;29;20524;-84
2021/09/27 09:27:25;;;;;;;9.27;8.13;;;19.70;99.90;;;-141.85;100.00;63675.41;4923778;29;20258;-84
2021/09/27 09:29:55;;;;;;;10.10;7.55;;;19.80;99.90;;;-141.85;100.00;63675.41;4924479;29;20265;-85
2021/09/27 09:32:30;;;;;;;10.18;7.60;;;19.80;99.90;;;-141.85;100.00;63675.41;4922851;29;20226;-83
2021/09/27 09:35:20;;;;;;;9.27;7.22;;;19.90;99.90;;;-141.85;100.00;63675.41;4925294;29;20208;-84
2021/09/27 09:37:55;;;;;;;8.80;7.22;;;19.90;99.90;;;-141.85;100.00;63675.41;4929206;29;20272;-85
2021/09/27 09:40:51;;;;;;;9.40;7.88;;;20.00;99.90;;;-141.85;100.00;63675.41;4948448;29;20280;-83
2021/09/27 09:43:31;;;;;;;9.38;8.15;;;20.00;99.90;;;-141.85;100.00;63675.41;4946071;29;20225;-85
2021/09/27 09:46:08;;;;;;;10.43;8.13;;;20.10;99.90;;;-141.85;100.00;63675.41;4946158;29;20200;-85
2021/09/27 09:48:44;;;;;;;10.40;8.38;;;20.00;99.90;;;-141.85;100.00;63675.41;4946032;29;20215;-84
2021/09/27 09:51:24;;;;;;;9.95;7.65;;;20.10;99.90;;;-141.85;100.00;63675.41;4944275;29;20236;-84
2021/09/27 09:54:17;;;;;;;9.32;8.35;;;20.10;99.90;;;-141.85;100.00;63675.41;4943727;29;20213;-85
2021/09/27 09:57:00;;;;;;;9.82;8.05;;;20.20;99.90;;;-141.85;100.00;63675.41;4907291;29;20211;-84
2021/09/27 09:59:35;;;;;;;9.35;8.02;;;20.30;99.90;;;-141.85;100.00;63675.41;4906840;29;20183;-86
2021/09/27 10:02:22;;;;;;;8.95;8.05;;;20.50;99.90;;;-141.85;100.00;63675.41;4906926;29;20221;-85
2021/09/27 10:05:07;;;;;;;12.43;10.30;;;20.50;99.90;;;-141.85;100.00;63675.41;4907493;29;20224;-86
2021/09/27 10:07:49;;;;;;;8.65;7.93;;;20.60;99.90;;;-141.85;100.00;63675.41;4907637;29;20278;-86
2021/09/27 10:10:35;;;;;;;8.20;7.40;;;20.80;99.90;;;-141.85;100.00;63675.41;4912115;29;20520;-84
2021/09/27 10:13:07;;;;;;;8.43;7.63;;;21.00;99.90;;;-141.85;100.00;63675.41;4905663;29;20574;-86
2021/09/27 10:16:00;;;;;;;9.93;8.30;;;21.10;99.90;;;-141.85;100.00;63675.41;4906624;29;20233;-84
2021/09/27 10:18:41;;;;;;;8.73;7.72;;;21.20;99.90;;;-141.85;100.00;63675.41;4908033;29;20282;-85
2021/09/27 10:21:43;;;;;;;9.02;8.00;;;21.20;99.90;;;-141.85;100.00;63675.41;4922078;29;20199;-86
2021/09/27 10:24:20;;;;;;;9.65;8.02;;;21.30;99.90;;;-141.85;100.00;63675.41;4918672;29;20287;-85
2021/09/27 10:26:54;;;;;;;9.15;8.25;;;21.20;99.90;;;-141.85;100.00;63675.41;4918692;29;20544;-86
2021/09/27 10:29:31;;;;;;;8.68;7.78;;;21.20;99.90;;;-141.85;100.00;63675.41;4904442;29;20207;-85
2021/09/27 10:32:11;;;;;;;8.05;7.25;;;21.40;99.90;;;-141.85;100.00;63675.41;4907067;29;20233;-85
2021/09/27 10:34:40;;;;;;;7.78;7.07;;;21.50;99.90;;;-141.85;100.00;63675.41;4908762;29;20211;-85
2021/09/27 10:37:18;;;;;;;8.45;7.32;;;21.50;99.90;;;-141.85;100.00;63675.41;4908732;29;20525;-86
2021/09/27 10:39:55;;;;;;;10.00;7.90;;;21.40;99.90;;;-141.85;100.00;63675.41;4907728;29;20212;-85
2021/09/27 10:42:34;;;;;;;8.73;7.60;;;21.30;99.90;;;-141.85;100.00;63675.41;4907503;29;20198;-86
2021/09/27 10:45:03;;;;;;;9.50;7.82;;;21.20;99.90;;;-141.85;100.00;63675.41;4908451;29;20704;-85
2021/09/27 10:47:37;;;;;;;11.68;8.32;;;21.30;99.90;;;-141.85;100.00;63675.41;4905342;29;20239;-84
2021/09/27 10:50:14;;;;;;;10.45;7.90;;;21.20;99.90;;;-141.85;100.00;63675.41;4906315;29;20262;-83
2021/09/27 10:52:57;;;;;;;8.82;7.93;;;21.20;99.90;;;-141.85;100.00;63675.41;4888322;29;20226;-85
2021/09/27 10:55:36;;;;;;;8.43;7.20;;;21.20;99.90;;;-141.85;100.00;63675.41;4923775;29;20201;-84
2021/09/27 10:58:10;;;;;;;9.02;8.10;;;21.30;99.90;;;-141.85;100.00;63675.41;4944449;29;20202;-84
2021/09/27 11:00:55;;;;;;;8.52;7.60;;;21.40;99.90;;;-141.85;100.00;63675.41;4944979;29;20205;-85
2021/09/27 11:04:08;;;;;;;8.73;7.75;;;21.30;99.90;;;-141.85;100.00;63675.41;4945939;29;20587;-85
2021/09/27 11:07:25;;;;;;;8.80;7.72;;;21.30;99.90;;;-141.85;100.00;63675.41;4929185;29;20205;-86
2021/09/27 11:10:28;;;;;;;9.15;7.97;;;21.40;99.90;;;-141.85;100.00;63675.41;4941553;29;20222;-83
2021/09/27 11:12:58;;;;;;;8.73;7.82;;;21.50;99.90;;;-141.85;100.00;63675.41;4943679;29;20217;-85
2021/09/27 11:15:33;;;;;;;8.07;7.28;;;21.60;99.90;;;-141.85;100.00;63675.41;4943350;29;20239;-84
2021/09/27 11:18:15;;;;;;;8.77;7.90;;;21.80;99.90;;;-141.85;100.00;63675.41;4943886;29;20515;-84
2021/09/27 11:21:18;;;;;;;8.65;7.07;;;21.90;99.90;;;-141.85;100.00;63675.41;4944347;29;20284;-85
2021/09/27 11:24:02;;;;;;;8.57;7.13;;;22.00;99.90;;;-141.85;100.00;63675.41;4943962;29;20203;-85
2021/09/27 11:26:46;;;;;;;8.63;7.80;;;22.10;99.90;;;-141.85;100.00;63675.41;4944343;29;20209;-86
2021/09/27 11:29:48;;;;;;;9.05;8.18;;;21.90;99.90;;;-141.85;100.00;63675.41;4942377;29;20213;-83
2021/09/27 11:32:47;;;;;;;8.82;7.90;;;22.00;99.90;;;-141.85;100.00;63675.41;4945839;29;20205;-85
2021/09/27 11:35:36;;;;;;;8.45;7.75;;;22.10;99.90;;;-141.85;100.00;63675.41;4944884;29;20206;-85
2021/09/27 11:38:34;;;;;;;9.25;8.35;;;22.30;99.90;;;-141.85;100.00;63675.41;4959139;28;20182;-84
2021/09/27 11:41:32;;;;;;;7.30;6.70;;;22.40;99.90;;;-141.85;100.00;63675.41;4959978;28;20186;-88
2021/09/27 11:44:17;;;;;;;8.35;7.65;;;22.70;99.90;;;-141.85;100.00;63675.41;4957743;28;20230;-85
2021/09/27 11:47:04;;;;;;;8.65;7.85;;;22.90;99.90;;;-141.85;100.00;63675.41;4945098;29;20720;-83
2021/09/27 11:49:58;;;;;;;8.70;7.90;;;22.90;99.90;;;-141.85;100.00;63675.41;4946361;29;20252;-85
2021/09/27 11:52:48;;;;;;;8.90;8.00;;;22.90;99.90;;;-141.85;100.00;63675.41;4949486;29;20205;-85
2021/09/27 11:55:28;;;;;;;11.20;10.10;;;22.70;99.90;;;-141.85;100.00;63675.41;4942799;29;20202;-84
2021/09/27 11:58:08;;;;;;;10.82;9.73;;;22.60;99.90;;;-141.85;100.00;63675.41;4931563;29;20675;-85
2021/09/27 12:00:49;;;;;;;11.20;10.07;;;22.60;99.90;;;-141.85;100.00;63675.41;4931282;29;20639;-84
2021/09/27 12:03:26;;;;;;;10.48;9.48;;;22.50;99.90;;;-141.85;100.00;63675.41;4930816;29;20289;-86
2021/09/27 12:06:06;;;;;;;10.13;9.18;;;22.50;99.90;;;-141.85;100.00;63675.41;4930835;29;20285;-85
2021/09/27 12:08:40;;;;;;;10.75;9.65;;;22.50;99.90;;;-141.85;100.00;63675.41;4932194;29;20273;-86
2021/09/27 12:11:14;;;;;;;11.13;10.00;;;22.50;99.90;;;-141.85;100.00;63675.41;4930906;29;20225;-87
2021/09/27 12:17:16;;;;;;;9.68;8.77;;;22.60;99.90;;;-141.85;100.00;63675.41;4895072;29;20234;-85
2021/09/27 12:20:11;;;;;;;12.50;11.15;;;22.50;99.90;;;-141.85;100.00;63675.41;4927641;29;20620;-84
2021/09/27 12:22:52;;;;;;;11.02;9.98;;;22.40;99.90;;;-141.85;100.00;63675.41;4928458;29;20616;-85
2021/09/27 12:25:28;;;;;;;11.32;10.23;;;22.40;99.90;;;-141.85;100.00;63675.41;4929300;29;20210;-85
2021/09/27 12:28:05;;;;;;;10.23;9.27;;;22.50;99.90;;;-141.85;100.00;63675.41;4928874;29;20646;-84
2021/09/27 12:30:42;;;;;;;10.65;9.65;;;22.50;99.90;;;-141.85;100.00;63675.41;4929412;29;20214;-85
2021/09/27 12:33:35;;;;;;;11.32;10.30;;;22.40;99.90;;;-141.85;100.00;63675.41;4928703;29;20226;-85
2021/09/27 12:36:25;;;;;;;10.32;9.38;;;22.20;99.90;;;-141.85;100.00;63675.41;4928734;29;20596;-86
2021/09/27 12:39:06;;;;;;;9.52;8.63;;;22.10;99.90;;;-141.85;100.00;63675.41;4932571;29;20291;-85
2021/09/27 12:41:37;;;;;;;10.30;9.40;;;22.10;99.90;;;-141.85;100.00;63675.41;4933566;29;20265;-85
2021/09/27 12:44:15;;;;;;;10.23;9.32;;;22.00;99.90;;;-141.85;100.00;63675.41;4932490;29;20206;-85
2021/09/27 12:46:56;;;;;;;11.75;10.55;;;22.00;99.90;;;-141.85;100.00;63675.41;4928578;29;20237;-86
2021/09/27 12:52:47;;;;;;;12.23;11.13;;;21.90;99.90;;;-141.85;100.00;63675.41;4929064;29;20202;-85
2021/09/27 12:55:28;;;;;;;11.88;10.57;;;21.90;99.90;;;-141.85;100.00;63675.41;4928557;29;20222;-84
2021/09/27 12:58:17;;;;;;;11.63;10.55;;;21.90;99.90;;;-141.85;100.00;63675.41;4929930;29;20214;-84
2021/09/27 13:01:03;;;;;;;13.52;10.82;;;22.00;99.90;;;-141.85;100.00;63675.41;4930075;29;20230;-85
2021/09/27 13:13:01;;;;;;;10.77;9.75;;;22.20;99.90;;;-141.85;100.00;63675.41;4926780;29;20289;-86
2021/09/27 13:19:07;;;;;;;11.15;10.15;;;21.70;99.90;;;-141.85;100.00;63675.41;4926575;29;20589;-86
2021/09/27 13:21:47;;;;;;;11.00;10.00;;;21.60;99.90;;;-141.85;100.00;63675.41;4929151;29;20212;-84
2021/09/27 13:24:23;;;;;;;11.88;10.73;;;21.40;99.90;;;-141.85;100.00;63675.41;4931082;29;20266;-86
2021/09/27 13:26:56;;;;;;;13.02;10.60;;;21.20;99.90;;;-141.85;100.00;63675.41;4929432;29;20202;-87
2021/09/27 13:30:04;;;;;;;12.75;11.30;;;21.00;99.90;;;-141.85;100.00;63675.41;4930570;29;20206;-86
2021/09/27 13:33:33;;;;;;;11.85;10.75;;;20.70;99.90;;;-141.85;100.00;63675.41;4918450;29;20201;-86
2021/09/27 13:37:06;;;;;;;12.35;10.73;;;20.50;99.90;;;-141.85;100.00;63675.41;4929213;29;20207;-86
2021/09/27 13:44:26;;;;;;;12.25;10.95;;;20.50;99.90;;;-141.85;100.00;63675.41;4928409;29;20281;-85
2021/09/27 13:47:39;;;;;;;12.10;10.93;;;20.60;99.90;;;-141.85;100.00;63675.41;4888229;29;20353;-84
2021/09/27 13:50:58;;;;;;;11.77;10.68;;;20.70;99.90;;;-141.85;100.00;63675.41;4888108;29;20208;-86
2021/09/27 13:54:05;;;;;;;12.93;11.63;;;20.90;99.90;;;-141.85;100.00;63675.41;4887053;29;20215;-86
2021/09/27 14:01:29;;;;;;;12.25;10.95;;;21.20;99.90;;;-141.85;100.00;63675.41;4885882;29;20230;-86
2021/09/27 14:04:55;;;;;;;12.90;11.55;;;21.40;99.90;;;-141.85;100.00;63675.41;4803351;29;20281;-86
2021/09/27 14:08:32;;;;;;;13.20;12.00;;;21.70;99.90;;;-141.85;100.00;63675.41;4848073;29;20646;-86
2021/09/27 14:11:17;;;;;;;12.60;11.35;;;21.90;99.90;;;-141.85;100.00;63675.41;4834818;29;20209;-86
2021/09/27 14:14:14;;;;;;;12.85;11.60;;;22.00;99.90;;;-141.85;100.00;63675.41;4850919;29;20346;-85
2021/09/27 14:17:24;;;;;;;12.95;11.75;;;22.10;99.90;;;-141.85;100.00;63675.41;4849951;29;20205;-86
2021/09/27 14:20:18;;;;;;;12.75;11.55;;;22.00;99.90;;;-141.85;100.00;63675.41;4847889;29;20212;-85
2021/09/27 14:22:50;;;;;;;13.48;12.20;;;22.00;99.90;;;-141.85;100.00;63675.41;4927393;29;20209;-86
2021/09/27 14:25:21;;;;;;;13.00;11.70;;;22.00;99.90;;;-141.85;100.00;63675.41;4929453;29;20209;-85
2021/09/27 14:27:51;;;;;;;12.50;11.30;;;22.00;99.90;;;-141.85;100.00;63675.41;4929452;29;20217;-84
2021/09/27 14:30:23;;;;;;;13.85;12.20;;;22.00;99.90;;;-141.85;100.00;63675.41;4931034;29;20592;-86
2021/09/27 14:32:53;;;;;;;11.82;10.73;;;22.00;99.90;;;-141.85;100.00;63675.41;4932538;29;20209;-86
2021/09/27 14:35:21;;;;;;;12.20;11.00;;;21.90;99.90;;;-141.85;100.00;63675.41;4941436;29;20232;-85
2021/09/27 14:37:50;;;;;;;12.82;11.50;;;21.90;99.90;;;-141.85;100.00;63675.41;4928193;29;20234;-84
2021/09/27 14:40:24;;;;;;;13.60;12.13;;;21.80;99.90;;;-141.85;100.00;63675.41;4926285;29;20210;-84
2021/09/27 14:42:56;;;;;;;12.88;11.68;;;21.70;99.90;;;-141.85;100.00;63675.41;4930423;29;20247;-86
2021/09/27 14:45:25;;;;;;;12.38;11.18;;;21.70;99.90;;;-141.85;100.00;63675.41;4924445;29;20245;-86
2021/09/27 14:48:40;;;;;;;12.38;11.23;;;21.60;99.90;;;-141.85;100.00;63675.41;4923928;29;20229;-85
2021/09/27 14:51:20;;;;;;;16.20;13.35;;;21.60;99.90;;;-141.85;100.00;63675.41;4925462;29;20206;-83
2021/09/27 14:53:52;;;;;;;13.48;12.18;;;21.50;99.90;;;-141.85;100.00;63675.41;4926507;29;20202;-85
2021/09/27 14:56:21;;;;;;;12.90;11.60;;;21.60;99.90;;;-141.85;100.00;63675.41;4944360;29;20197;-84
2021/09/27 14:58:50;;;;;;;12.73;11.48;;;21.70;99.90;;;-141.85;100.00;63675.41;4946702;29;20201;-83
2021/09/27 15:06:30;;;;;;;11.98;10.88;;;21.70;99.90;;;-141.85;100.00;63675.41;4889226;29;20570;-86
2021/09/27 15:09:01;;;;;;;15.02;13.57;;;21.70;99.90;;;-141.85;100.00;63675.41;4923405;29;20221;-85
2021/09/27 15:11:32;;;;;;;13.70;12.27;;;21.60;99.90;;;-141.85;100.00;63675.41;4947689;29;20249;-86
2021/09/27 15:14:19;;;;;;;13.57;12.20;;;21.50;99.90;;;-141.85;100.00;63675.41;4946952;29;20213;-85
2021/09/27 15:17:00;;;;;;;11.30;10.30;;;21.40;99.90;;;-141.85;100.00;63675.41;4947642;29;20182;-86
2021/09/27 15:24:35;;;;;;;12.88;11.57;;;21.20;99.90;;;-141.85;100.00;63675.41;4892783;29;20626;-86
2021/09/27 15:35:32;;;;;;;14.02;12.20;;;20.80;99.90;;;-141.85;100.00;63675.41;4786915;29;20314;-86
2021/09/27 15:38:02;;;;;;;13.27;11.93;;;20.60;99.90;;;-141.85;100.00;63675.41;4837272;29;20198;-85
2021/09/27 15:40:30;;;;;;;13.80;12.50;;;20.50;99.90;;;-141.85;100.00;63675.41;4930848;29;20209;-86
2021/09/27 15:43:00;;;;;;;14.23;12.15;;;20.50;99.90;;;-141.85;100.00;63675.41;4949940;29;20244;-85
2021/09/27 15:45:59;;;;;;;12.90;11.70;;;20.40;99.90;;;-141.85;100.00;63675.41;4950954;29;20268;-85
2021/09/27 15:48:28;;;;;;;12.02;10.82;;;20.40;99.90;;;-141.85;100.00;63675.41;4933530;29;20195;-86
2021/09/27 15:50:57;;;;;;;14.68;13.27;;;20.30;99.90;;;-141.85;100.00;63675.41;4933727;29;20217;-85
2021/09/27 15:53:27;;;;;;;14.23;12.32;;;20.30;99.90;;;-141.85;100.00;63675.41;4930625;29;20218;-85
2021/09/27 15:55:56;;;;;;;14.27;11.90;;;20.20;99.90;;;-141.85;100.00;63675.41;4930877;29;20304;-85
2021/09/27 15:58:33;;;;;;;15.23;13.30;;;20.20;99.90;;;-141.85;100.00;63675.41;4931814;29;20606;-85
2021/09/27 16:01:04;;;;;;;14.25;12.85;;;20.20;99.90;;;-141.85;100.00;63675.41;4932893;29;20233;-84
2021/09/27 16:11:31;;;;;;;13.77;12.48;;;20.10;99.90;;;-141.85;100.00;63675.41;4876239;29;20309;-84
2021/09/27 16:14:07;;;;;;;12.90;11.65;;;20.00;99.90;;;-141.85;100.00;63675.41;4876269;29;20208;-83
2021/09/27 16:16:39;;;;;;;16.27;13.93;;;20.00;99.90;;;-141.85;100.00;63675.41;4922856;29;20237;-85
2021/09/27 16:19:10;;;;;;;15.15;13.55;;;19.90;99.90;;;-141.85;100.00;63675.41;4937692;29;20187;-86
2021/09/27 16:21:39;;;;;;;13.95;12.45;;;19.90;99.90;;;-141.85;100.00;63675.41;4941760;28;20221;-85
2021/09/27 16:24:09;;;;;;;11.73;10.50;;;19.90;99.90;;;-141.85;100.00;63675.41;4938439;29;20293;-85